Etusivu
METAR-TAF:

METAR-TAF

Lentoasemat :

Saarbrücken, Saksa

Leveyspiiri: 49-13N, Pituuspiiri: 007-07E, korkeus merenpinnasta: 322 m

Tämänhetkinen sää

Tämä raportti tehtiin 37 minuuttia sitten, kello 05.50 UTC
Tuuli 6 kn idästä/koillisesta
Lämpötila 5°C
Kosteus 93%
Ilmanpaine 1028 hPa
Näkyvyys 10 km tai enemmän
ei pilviä alle 1500 m:ssä eikä cumulonimbus-pilviä

METAR: EDDR 210550Z 06006KT CAVOK 05/04 Q1028 NOSIG

Aika: 08:27 (06:27 UTC)

Sääennuste

Tämä raportti tehtiin 1 tunti ja 27 minuuttia sitten, kello 05.00 UTC
Ennuste voimassa 21. päivästä klo 06 UTC - 22. päivään klo 06 UTC
Tuuli 8 kn idästä/koillisesta
Näkyvyys 10 km tai enemmän
ei pilviä alle 1500 m:ssä eikä cumulonimbus-pilviä

TAF: EDDR 210500Z 2106/2206 06008KT CAVOK

Säähavainnot ja -ennusteet yli 4000 lentoasemalta (METAR- ja TAF-raportit).

Käytössä olevat sääasemat on merkitty karttaan keltaisilla ja punaisilla pisteillä.

Aseta hiiri pisteen päälle nähdäksesi sääaseman nimen.

Klikkaa sitten nähdäksesi säähavainnot ja -ennusteet.

Kartan vaihtaminen: klikkaa mustalla rastilla varustettuja vihreitä pisteitä, niin voit zoomata sisään; viivalla varustettua vihreää pistettä, niin voit zoomata ulos tai vihreitä nuolia, niin pääset viereisille kartoille.


METAR-TAF: